createdAt,value
2023-04-20T00:01:24.834Z,8.50
2023-04-20T00:03:52.294Z,11.80
2023-04-20T00:06:21.753Z,13.73
2023-04-20T00:08:48.678Z,11.70
2023-04-20T00:11:15.529Z,10.20
2023-04-20T00:13:42.814Z,10.77
2023-04-20T00:16:09.682Z,12.30
2023-04-20T00:18:36.400Z,10.60
2023-04-20T00:21:03.227Z,35.73
2023-04-20T00:23:29.943Z,13.27
2023-04-20T00:25:56.698Z,17.70
2023-04-20T00:28:23.500Z,15.70
2023-04-20T00:30:50.370Z,10.03
2023-04-20T00:33:17.130Z,9.97
2023-04-20T00:35:43.854Z,13.37
2023-04-20T00:38:10.533Z,18.37
2023-04-20T00:40:37.218Z,35.30
2023-04-20T00:43:14.088Z,8.73
2023-04-20T00:45:41.298Z,10.80
2023-04-20T00:48:08.033Z,18.83
2023-04-20T00:50:35.616Z,13.43
2023-04-20T00:53:03.237Z,11.03
2023-04-20T00:55:30.805Z,11.20
2023-04-20T00:57:58.240Z,17.80
2023-04-20T01:00:26.107Z,15.93
2023-04-20T01:02:52.947Z,14.10
2023-04-20T01:05:20.430Z,10.60
2023-04-20T01:07:47.146Z,9.43
2023-04-20T01:10:14.007Z,15.63
2023-04-20T01:12:40.858Z,7.73
2023-04-20T01:15:08.471Z,10.50
2023-04-20T01:17:39.859Z,9.80
2023-04-20T01:20:14.917Z,13.90
2023-04-20T01:22:51.917Z,11.13
2023-04-20T01:25:19.081Z,17.27
2023-04-20T01:27:46.136Z,9.40
2023-04-20T01:30:13.532Z,10.13
2023-04-20T01:32:41.064Z,15.90
2023-04-20T01:35:09.250Z,10.37
2023-04-20T01:37:36.506Z,10.87
2023-04-20T01:40:03.909Z,14.30
2023-04-20T01:42:30.720Z,19.83
2023-04-20T01:44:57.840Z,12.57
2023-04-20T01:47:24.594Z,12.23
2023-04-20T01:49:51.321Z,11.03
2023-04-20T01:52:18.111Z,12.60
2023-04-20T01:54:44.997Z,13.07
2023-04-20T01:57:11.898Z,13.10
2023-04-20T01:59:38.617Z,13.53
2023-04-20T02:02:05.443Z,15.67
2023-04-20T02:04:32.260Z,11.83
2023-04-20T02:06:58.958Z,11.43
2023-04-20T02:09:25.777Z,9.83
2023-04-20T02:11:52.560Z,12.70
2023-04-20T02:14:19.256Z,14.20
2023-04-20T02:16:46.758Z,15.40
2023-04-20T02:19:13.532Z,9.83
2023-04-20T02:21:40.281Z,10.30
2023-04-20T02:24:07.297Z,9.37
2023-04-20T02:26:34.035Z,12.30
2023-04-20T02:29:00.772Z,11.23
2023-04-20T02:31:27.615Z,10.70
2023-04-20T02:33:54.391Z,11.20
2023-04-20T02:36:21.095Z,10.03
2023-04-20T02:38:47.777Z,18.43
2023-04-20T02:41:14.501Z,8.80
2023-04-20T02:43:41.284Z,12.43
2023-04-20T02:46:08.247Z,12.83
2023-04-20T02:48:34.994Z,10.37
2023-04-20T02:51:01.811Z,9.43
2023-04-20T02:53:28.601Z,10.07
2023-04-20T02:55:55.384Z,10.70
2023-04-20T02:58:22.040Z,12.10
2023-04-20T03:00:48.749Z,11.70
2023-04-20T03:03:15.741Z,9.90
2023-04-20T03:05:43.387Z,14.97
2023-04-20T03:08:10.639Z,11.63
2023-04-20T03:10:37.419Z,10.40
2023-04-20T03:13:04.136Z,11.27
2023-04-20T03:15:30.906Z,11.70
2023-04-20T03:17:57.717Z,10.50
2023-04-20T03:20:24.916Z,12.03
2023-04-20T03:22:52.072Z,10.77
2023-04-20T03:25:19.148Z,14.17
2023-04-20T03:27:49.415Z,9.20
2023-04-20T03:30:16.645Z,14.80
2023-04-20T03:32:43.776Z,11.47
2023-04-20T03:35:10.746Z,10.80
2023-04-20T03:37:37.786Z,12.60
2023-04-20T03:40:06.885Z,14.23
2023-04-20T03:42:33.612Z,9.50
2023-04-20T03:45:00.791Z,13.23
2023-04-20T03:47:27.543Z,14.40
2023-04-20T03:49:54.647Z,14.60
2023-04-20T03:52:21.836Z,12.00
2023-04-20T03:54:48.577Z,13.77
2023-04-20T03:57:15.342Z,13.10
2023-04-20T03:59:42.045Z,10.70
2023-04-20T04:02:10.977Z,10.30
2023-04-20T04:04:37.982Z,10.43
2023-04-20T04:07:05.301Z,14.20
2023-04-20T04:09:32.434Z,10.40
2023-04-20T04:11:59.199Z,12.77
2023-04-20T04:14:26.046Z,10.77
2023-04-20T04:16:52.868Z,11.33
2023-04-20T04:19:20.208Z,12.80
2023-04-20T04:21:46.942Z,13.67
2023-04-20T04:24:14.184Z,16.63
2023-04-20T04:26:41.302Z,12.37
2023-04-20T04:29:08.954Z,15.00
2023-04-20T04:31:35.838Z,11.40
2023-04-20T04:34:03.688Z,12.47
2023-04-20T04:36:30.454Z,20.77
2023-04-20T04:39:11.033Z,12.43
2023-04-20T04:41:38.154Z,16.00
2023-04-20T04:44:05.921Z,15.30
2023-04-20T04:46:36.474Z,17.40
2023-04-20T04:49:30.039Z,19.67
2023-04-20T04:51:57.178Z,15.77
2023-04-20T04:54:23.985Z,16.43
2023-04-20T04:56:51.694Z,13.30
2023-04-20T04:59:18.959Z,17.97
2023-04-20T05:01:46.273Z,18.93
2023-04-20T05:04:13.218Z,15.83
2023-04-20T05:06:40.041Z,17.57
2023-04-20T05:09:07.161Z,18.00
2023-04-20T05:11:34.300Z,19.90
2023-04-20T05:14:02.592Z,15.73
2023-04-20T05:16:32.455Z,17.93
2023-04-20T05:18:59.175Z,14.23
2023-04-20T05:21:26.286Z,17.80
2023-04-20T05:23:53.055Z,16.97
2023-04-20T05:26:20.288Z,12.57
2023-04-20T05:28:47.429Z,16.07
2023-04-20T05:31:14.600Z,17.47
2023-04-20T05:33:41.501Z,16.37
2023-04-20T05:36:11.366Z,14.33
2023-04-20T05:38:38.475Z,19.43
2023-04-20T05:41:05.430Z,15.93
2023-04-20T05:43:32.602Z,16.17
2023-04-20T05:45:59.317Z,18.17
2023-04-20T05:48:29.711Z,16.33
2023-04-20T05:50:57.152Z,21.57
2023-04-20T05:53:24.382Z,16.37
2023-04-20T05:55:51.127Z,19.03
2023-04-20T05:58:18.251Z,18.60
2023-04-20T06:00:46.128Z,17.90
2023-04-20T06:03:13.583Z,20.07
2023-04-20T06:05:41.114Z,16.13
2023-04-20T06:08:07.931Z,17.20
2023-04-20T06:10:34.761Z,15.70
2023-04-20T06:13:02.031Z,22.53
2023-04-20T06:15:28.877Z,14.93
2023-04-20T06:17:55.708Z,15.63
2023-04-20T06:20:22.961Z,25.20
2023-04-20T06:22:49.903Z,16.77
2023-04-20T06:25:17.004Z,14.80
2023-04-20T06:27:43.790Z,17.10
2023-04-20T06:30:11.649Z,14.77
2023-04-20T06:32:38.542Z,19.43
2023-04-20T06:35:06.673Z,32.37
2023-04-20T06:37:33.917Z,18.30
2023-04-20T06:40:01.196Z,22.23
2023-04-20T06:42:28.304Z,22.70
2023-04-20T06:44:56.371Z,19.10
2023-04-20T06:47:23.675Z,25.57
2023-04-20T06:49:50.463Z,29.93
2023-04-20T06:52:17.178Z,16.23
2023-04-20T06:54:44.347Z,18.90
2023-04-20T06:57:11.488Z,17.00
2023-04-20T06:59:38.625Z,21.73
2023-04-20T07:02:05.890Z,16.93
2023-04-20T07:04:33.260Z,18.40
2023-04-20T07:07:00.042Z,19.20
2023-04-20T07:09:27.056Z,22.70
2023-04-20T07:11:56.215Z,18.60
2023-04-20T07:14:23.397Z,21.20
2023-04-20T07:16:53.857Z,21.63
2023-04-20T07:19:21.087Z,21.60
2023-04-20T07:21:48.294Z,25.70
2023-04-20T07:24:15.523Z,22.47
2023-04-20T07:26:42.872Z,19.43
2023-04-20T07:29:10.034Z,18.10
2023-04-20T07:31:37.222Z,22.63
2023-04-20T07:34:04.529Z,23.83
2023-04-20T07:36:32.693Z,20.30
2023-04-20T07:38:59.890Z,18.50
2023-04-20T07:41:27.051Z,22.43
2023-04-20T07:43:54.238Z,20.23
2023-04-20T07:46:22.340Z,15.63
2023-04-20T07:48:49.308Z,14.23
2023-04-20T07:51:16.646Z,17.43
2023-04-20T07:53:44.172Z,14.13
2023-04-20T07:56:11.317Z,16.40
2023-04-20T07:58:40.265Z,17.67
2023-04-20T08:01:07.708Z,20.57
2023-04-20T08:03:35.506Z,20.10
2023-04-20T08:06:05.128Z,21.13
2023-04-20T08:08:31.912Z,19.30
2023-04-20T08:10:58.787Z,19.63
2023-04-20T08:13:25.956Z,15.03
2023-04-20T08:15:52.775Z,15.30
2023-04-20T08:18:21.312Z,19.73
2023-04-20T08:20:48.843Z,16.30
2023-04-20T08:23:17.818Z,14.30
2023-04-20T08:25:44.630Z,16.27
2023-04-20T08:28:19.238Z,14.43
2023-04-20T08:30:51.346Z,16.47
2023-04-20T08:33:18.134Z,14.43
2023-04-20T08:35:45.452Z,14.50
2023-04-20T08:38:15.623Z,16.93
2023-04-20T08:40:44.698Z,12.47
2023-04-20T08:43:11.452Z,16.50
2023-04-20T08:45:38.874Z,15.50
2023-04-20T08:48:10.370Z,14.10
2023-04-20T08:50:40.692Z,14.27
2023-04-20T08:53:09.654Z,13.00
2023-04-20T08:55:36.766Z,14.90
2023-04-20T08:58:03.794Z,12.83
2023-04-20T09:00:30.755Z,12.97
2023-04-20T09:02:59.200Z,11.30
2023-04-20T09:05:31.532Z,10.53
2023-04-20T09:08:00.292Z,11.47
2023-04-20T09:10:39.042Z,11.10
2023-04-20T09:13:06.413Z,15.10
2023-04-20T09:15:33.350Z,14.50
2023-04-20T09:18:00.634Z,13.67
2023-04-20T09:20:34.698Z,10.80
2023-04-20T09:23:12.312Z,12.10
2023-04-20T09:25:41.017Z,14.10
2023-04-20T09:28:09.097Z,15.40
2023-04-20T09:30:46.928Z,13.67
2023-04-20T09:33:14.668Z,11.37
2023-04-20T09:35:42.976Z,13.27
2023-04-20T09:38:10.834Z,12.30
2023-04-20T09:40:38.115Z,11.43
2023-04-20T09:43:24.330Z,11.67
2023-04-20T09:45:51.489Z,12.73
2023-04-20T09:48:19.844Z,10.80
2023-04-20T09:50:49.819Z,11.27
2023-04-20T09:53:18.873Z,11.40
2023-04-20T09:55:50.323Z,12.80
2023-04-20T09:58:21.346Z,13.93
2023-04-20T10:00:49.024Z,13.63
2023-04-20T10:03:21.901Z,15.97
2023-04-20T10:05:49.405Z,16.07
2023-04-20T10:08:17.410Z,16.63
2023-04-20T10:10:49.737Z,14.23
2023-04-20T10:13:19.557Z,14.57
2023-04-20T10:15:46.628Z,19.10
2023-04-20T10:18:20.436Z,14.10
2023-04-20T10:20:47.625Z,14.37
2023-04-20T10:23:16.172Z,16.90
2023-04-20T10:25:45.389Z,15.93
2023-04-20T10:28:12.759Z,16.80
2023-04-20T10:30:50.963Z,17.10
2023-04-20T10:33:18.164Z,18.23
2023-04-20T10:35:51.633Z,15.47
2023-04-20T10:38:35.695Z,15.73
2023-04-20T10:41:13.417Z,17.20
2023-04-20T10:43:43.589Z,18.10
2023-04-20T10:46:28.662Z,17.27
2023-04-20T10:48:56.473Z,14.73
2023-04-20T10:51:24.037Z,16.23
2023-04-20T10:54:09.250Z,16.40
2023-04-20T10:56:51.562Z,14.60
2023-04-20T10:59:21.254Z,17.40
2023-04-20T11:01:48.993Z,19.50
2023-04-20T11:04:18.610Z,16.70
2023-04-20T11:06:48.452Z,13.43
2023-04-20T11:09:28.315Z,15.47
2023-04-20T11:12:03.953Z,15.47
2023-04-20T11:14:32.043Z,16.17
2023-04-20T11:16:58.973Z,12.13
2023-04-20T11:19:26.301Z,15.27
2023-04-20T11:21:53.455Z,17.43
2023-04-20T11:24:24.903Z,12.37
2023-04-20T11:26:54.416Z,12.93
2023-04-20T11:29:31.208Z,18.30
2023-04-20T11:31:59.221Z,15.10
2023-04-20T11:34:26.456Z,15.40
2023-04-20T11:36:56.670Z,14.30
2023-04-20T11:39:28.485Z,14.13
2023-04-20T11:41:57.281Z,12.30
2023-04-20T11:44:25.193Z,13.10
2023-04-20T11:46:54.370Z,13.17
2023-04-20T11:49:21.885Z,10.83
2023-04-20T11:51:48.657Z,11.07
2023-04-20T11:54:15.513Z,11.10
2023-04-20T11:56:42.668Z,12.40
2023-04-20T11:59:09.535Z,12.27
2023-04-20T12:01:37.556Z,14.00
2023-04-20T12:04:05.185Z,13.50
2023-04-20T12:06:32.735Z,13.90
2023-04-20T12:09:01.358Z,13.77
2023-04-20T12:11:28.505Z,14.40
2023-04-20T12:13:55.659Z,13.27
2023-04-20T12:16:22.468Z,17.40
2023-04-20T12:18:49.348Z,10.57
2023-04-20T12:21:16.131Z,11.73
2023-04-20T12:23:44.285Z,12.60
2023-04-20T12:26:11.087Z,13.73
2023-04-20T12:28:37.929Z,16.40
2023-04-20T12:31:04.855Z,15.57
2023-04-20T12:33:31.590Z,15.87
2023-04-20T12:35:58.331Z,17.50
2023-04-20T12:38:25.128Z,15.50
2023-04-20T12:40:51.981Z,15.70
2023-04-20T12:43:18.665Z,17.47
2023-04-20T12:45:46.030Z,18.23
2023-04-20T12:48:12.839Z,13.40
2023-04-20T12:50:39.644Z,14.20
2023-04-20T12:53:06.620Z,13.40
2023-04-20T12:55:33.418Z,14.10
2023-04-20T12:58:00.207Z,14.00
2023-04-20T13:00:26.945Z,12.07
2023-04-20T13:02:54.005Z,12.17
2023-04-20T13:05:20.951Z,13.63
2023-04-20T13:07:47.690Z,17.40
2023-04-20T13:10:14.498Z,13.00
2023-04-20T13:12:41.636Z,23.77
2023-04-20T13:15:09.353Z,16.30
2023-04-20T13:17:36.446Z,14.70
2023-04-20T13:20:04.781Z,15.73
2023-04-20T13:22:31.531Z,14.07
2023-04-20T13:24:58.313Z,23.07
2023-04-20T13:27:25.061Z,12.70
2023-04-20T13:29:51.837Z,15.37
2023-04-20T13:32:18.605Z,14.60
2023-04-20T13:34:46.093Z,14.00
2023-04-20T13:37:13.638Z,14.30
2023-04-20T13:39:40.947Z,12.40
2023-04-20T13:42:07.725Z,14.67
2023-04-20T13:44:35.407Z,12.93
2023-04-20T13:47:02.272Z,14.10
2023-04-20T13:49:29.044Z,12.70
2023-04-20T13:51:56.242Z,14.10
2023-04-20T13:54:22.964Z,14.37
2023-04-20T13:56:49.711Z,13.53
2023-04-20T13:59:16.560Z,13.00
2023-04-20T14:01:43.348Z,11.70
2023-04-20T14:04:10.643Z,11.10
2023-04-20T14:06:38.348Z,16.63
2023-04-20T14:09:05.096Z,13.00
2023-04-20T14:11:31.822Z,10.10
2023-04-20T14:13:58.690Z,11.30
2023-04-20T14:16:26.088Z,12.50
2023-04-20T14:18:52.956Z,12.53
2023-04-20T14:21:19.721Z,12.13
2023-04-20T14:23:46.499Z,16.03
2023-04-20T14:26:13.334Z,13.27
2023-04-20T14:28:40.081Z,14.10
2023-04-20T14:31:06.821Z,13.43
2023-04-20T14:33:33.531Z,13.07
2023-04-20T14:36:00.323Z,13.93
2023-04-20T14:38:27.045Z,13.20
2023-04-20T14:40:53.901Z,12.10
2023-04-20T14:43:20.712Z,12.80
2023-04-20T14:45:47.923Z,13.80
2023-04-20T14:48:14.687Z,11.30
2023-04-20T14:50:41.362Z,17.40
2023-04-20T14:53:08.133Z,13.13
2023-04-20T14:55:34.893Z,17.37
2023-04-20T14:58:01.638Z,14.17
2023-04-20T15:00:28.642Z,17.40
2023-04-20T15:02:56.805Z,15.90
2023-04-20T15:05:26.033Z,17.13
2023-04-20T15:07:53.142Z,17.20
2023-04-20T15:10:20.369Z,17.23
2023-04-20T15:12:48.094Z,17.40
2023-04-20T15:15:15.496Z,15.30
2023-04-20T15:17:42.487Z,15.10
2023-04-20T15:20:09.827Z,14.33
2023-04-20T15:22:37.502Z,15.47
2023-04-20T15:25:04.849Z,15.90
2023-04-20T15:27:31.692Z,12.57
2023-04-20T15:29:58.437Z,15.83
2023-04-20T15:32:25.995Z,14.07
2023-04-20T15:34:53.154Z,14.30
2023-04-20T15:37:19.920Z,15.50
2023-04-20T15:39:47.081Z,17.10
2023-04-20T15:42:13.889Z,14.50
2023-04-20T15:44:41.506Z,15.60
2023-04-20T15:47:08.281Z,12.80
2023-04-20T15:49:37.449Z,114.80
2023-04-20T15:52:04.629Z,28.03
2023-04-20T15:54:31.367Z,15.90
2023-04-20T15:56:58.095Z,13.00
2023-04-20T15:59:24.888Z,21.30
2023-04-20T16:01:51.732Z,11.73
2023-04-20T16:04:19.137Z,14.73
2023-04-20T16:06:46.227Z,18.13
2023-04-20T16:09:13.157Z,21.87
2023-04-20T16:11:40.668Z,14.33
2023-04-20T16:14:07.826Z,15.63
2023-04-20T16:16:34.665Z,16.70
2023-04-20T16:19:01.383Z,14.83
2023-04-20T16:21:28.225Z,21.60
2023-04-20T16:23:56.709Z,17.20
2023-04-20T16:26:26.863Z,20.60
2023-04-20T16:28:54.161Z,17.60
2023-04-20T16:31:21.135Z,17.53
2023-04-20T16:33:48.037Z,18.43
2023-04-20T16:36:16.449Z,18.83
2023-04-20T16:38:43.496Z,14.17
2023-04-20T16:41:10.288Z,16.30
2023-04-20T16:43:37.189Z,15.40
2023-04-20T16:46:03.934Z,18.50
2023-04-20T16:48:31.214Z,15.47
2023-04-20T16:50:58.010Z,17.73
2023-04-20T16:53:24.794Z,17.87
2023-04-20T16:55:51.888Z,15.23
2023-04-20T16:58:18.638Z,19.20
2023-04-20T17:00:45.445Z,19.10
2023-04-20T17:03:13.690Z,17.57
2023-04-20T17:05:42.083Z,16.83
2023-04-20T17:08:09.461Z,20.63
2023-04-20T17:10:39.347Z,17.75
2023-04-20T17:13:06.226Z,14.87
2023-04-20T17:15:33.012Z,17.30
2023-04-20T17:17:59.965Z,13.93
2023-04-20T17:20:26.932Z,15.63
2023-04-20T17:22:53.742Z,11.57
2023-04-20T17:25:20.562Z,13.77
2023-04-20T17:27:47.298Z,11.50
2023-04-20T17:30:14.522Z,13.43
2023-04-20T17:32:41.939Z,14.03
2023-04-20T17:35:09.094Z,11.30
2023-04-20T17:37:36.575Z,14.97
2023-04-20T17:40:05.108Z,13.60
2023-04-20T17:42:32.066Z,13.63
2023-04-20T17:44:58.881Z,17.33
2023-04-20T17:47:25.857Z,26.43
2023-04-20T17:49:52.864Z,16.60
2023-04-20T17:52:20.037Z,17.50
2023-04-20T17:54:46.856Z,17.57
2023-04-20T17:57:14.294Z,18.93
2023-04-20T17:59:42.338Z,21.30
2023-04-20T18:02:09.380Z,33.10
2023-04-20T18:04:36.439Z,18.00
2023-04-20T18:07:04.028Z,16.57
2023-04-20T18:09:31.017Z,20.47
2023-04-20T18:11:57.874Z,19.03
2023-04-20T18:14:24.618Z,32.80
2023-04-20T18:16:52.516Z,18.97
2023-04-20T18:19:19.358Z,20.83
2023-04-20T18:21:46.226Z,20.23
2023-04-20T18:24:12.976Z,20.47
2023-04-20T18:26:39.784Z,22.80
2023-04-20T18:29:06.595Z,24.73
2023-04-20T18:31:33.544Z,24.07
2023-04-20T18:34:00.469Z,22.90
2023-04-20T18:36:27.260Z,23.63
2023-04-20T18:38:54.451Z,27.03
2023-04-20T18:41:23.257Z,30.70
2023-04-20T18:43:53.633Z,31.77
2023-04-20T18:46:20.527Z,29.57
2023-04-20T18:48:47.560Z,26.50
2023-04-20T18:51:14.391Z,27.00
2023-04-20T18:53:41.129Z,45.17
2023-04-20T18:56:10.100Z,28.30
2023-04-20T18:58:37.063Z,26.63
2023-04-20T19:01:04.382Z,28.33
2023-04-20T19:03:32.253Z,34.97
2023-04-20T19:05:59.305Z,28.20
2023-04-20T19:08:26.018Z,26.70
2023-04-20T19:10:56.413Z,29.27
2023-04-20T19:13:23.696Z,29.37
2023-04-20T19:15:54.958Z,28.00
2023-04-20T19:18:21.862Z,31.97
2023-04-20T19:20:48.542Z,29.67
2023-04-20T19:23:15.423Z,29.30
2023-04-20T19:25:42.206Z,30.43
2023-04-20T19:28:09.172Z,38.03
2023-04-20T19:30:36.112Z,32.43
2023-04-20T19:33:05.065Z,34.67
2023-04-20T19:35:32.330Z,33.77
2023-04-20T19:37:59.548Z,37.33
2023-04-20T19:40:26.640Z,45.43
2023-04-20T19:42:53.392Z,41.83
2023-04-20T19:45:20.314Z,44.50
2023-04-20T19:47:47.105Z,42.77
2023-04-20T19:50:14.272Z,41.73
2023-04-20T19:52:41.209Z,41.30
2023-04-20T19:55:08.330Z,47.97
2023-04-20T19:57:35.062Z,46.07
2023-04-20T20:00:01.878Z,35.30
2023-04-20T20:02:28.722Z,37.97
2023-04-20T20:04:55.611Z,42.70
2023-04-20T20:07:22.388Z,38.70
2023-04-20T20:09:49.121Z,38.87
2023-04-20T20:12:16.498Z,38.03
2023-04-20T20:14:43.283Z,35.83
2023-04-20T20:17:10.675Z,36.73
2023-04-20T20:19:37.388Z,39.47
2023-04-20T20:22:04.170Z,36.70
2023-04-20T20:24:30.915Z,36.10
2023-04-20T20:26:57.669Z,36.37
2023-04-20T20:29:24.586Z,37.20
2023-04-20T20:31:51.495Z,36.17
2023-04-20T20:34:18.309Z,36.27
2023-04-20T20:36:46.309Z,34.80
2023-04-20T20:39:13.772Z,46.53
2023-04-20T20:41:42.744Z,37.90
2023-04-20T20:44:12.907Z,36.63
2023-04-20T20:46:39.955Z,38.37
2023-04-20T20:49:06.774Z,38.93
2023-04-20T20:51:33.573Z,33.10
2023-04-20T20:54:00.320Z,35.77
2023-04-20T20:56:27.074Z,34.30
2023-04-20T20:58:54.228Z,36.80
2023-04-20T21:01:21.509Z,36.90
2023-04-20T21:03:50.028Z,39.80
2023-04-20T21:06:17.596Z,35.90
2023-04-20T21:08:44.361Z,37.67
2023-04-20T21:11:11.092Z,35.80
2023-04-20T21:13:37.834Z,35.67
2023-04-20T21:16:04.724Z,29.57
2023-04-20T21:18:32.497Z,30.47
2023-04-20T21:20:59.233Z,32.30
2023-04-20T21:23:26.281Z,34.40
2023-04-20T21:25:53.301Z,31.50
2023-04-20T21:28:20.050Z,32.27
2023-04-20T21:30:46.771Z,32.10
2023-04-20T21:33:13.505Z,34.13
2023-04-20T21:35:40.838Z,35.33
2023-04-20T21:38:07.965Z,37.90
2023-04-20T21:40:35.202Z,35.33
2023-04-20T21:43:02.052Z,34.20
2023-04-20T21:45:29.162Z,35.50
2023-04-20T21:47:56.399Z,34.17
2023-04-20T21:50:26.976Z,31.80
2023-04-20T21:52:54.777Z,31.80
2023-04-20T21:55:21.779Z,29.97
2023-04-20T21:57:49.239Z,34.93
2023-04-20T22:00:16.565Z,32.13
2023-04-20T22:02:43.470Z,37.60
2023-04-20T22:05:11.460Z,33.53
2023-04-20T22:07:39.002Z,37.20
2023-04-20T22:10:07.025Z,34.13
2023-04-20T22:12:39.744Z,38.27
2023-04-20T22:15:12.175Z,34.60
2023-04-20T22:17:39.421Z,34.23
2023-04-20T22:20:09.179Z,35.90
2023-04-20T22:22:37.777Z,38.00
2023-04-20T22:25:05.821Z,38.27
2023-04-20T22:27:33.381Z,32.50
2023-04-20T22:30:00.488Z,36.10
2023-04-20T22:32:27.826Z,35.00
2023-04-20T22:34:54.596Z,34.00
2023-04-20T22:37:21.703Z,33.30
2023-04-20T22:39:48.808Z,32.80
2023-04-20T22:42:15.782Z,35.50
2023-04-20T22:44:42.460Z,34.20
2023-04-20T22:47:09.289Z,33.37
2023-04-20T22:49:37.502Z,32.70
2023-04-20T22:52:04.370Z,37.40
2023-04-20T22:54:31.460Z,36.97
2023-04-20T22:56:58.826Z,37.90
2023-04-20T22:59:25.982Z,37.63
2023-04-20T23:01:53.177Z,40.23
2023-04-20T23:04:20.099Z,35.20
2023-04-20T23:06:47.217Z,39.90
2023-04-20T23:09:17.390Z,35.30
2023-04-20T23:11:47.184Z,36.07
2023-04-20T23:14:14.220Z,35.33
2023-04-20T23:16:41.569Z,39.63
2023-04-20T23:19:08.376Z,37.97
2023-04-20T23:21:35.098Z,34.80
2023-04-20T23:24:02.337Z,35.50
2023-04-20T23:26:29.511Z,35.80
2023-04-20T23:28:56.663Z,34.40
2023-04-20T23:31:23.810Z,35.40
2023-04-20T23:33:50.988Z,33.90
2023-04-20T23:36:18.124Z,32.97
2023-04-20T23:38:45.339Z,34.87
2023-04-20T23:41:13.640Z,35.27
2023-04-20T23:43:41.218Z,35.77
2023-04-20T23:46:08.541Z,36.40
2023-04-20T23:48:35.371Z,40.70
2023-04-20T23:51:02.647Z,35.30
2023-04-20T23:53:29.461Z,37.60
2023-04-20T23:55:56.368Z,36.03
2023-04-20T23:58:27.759Z,37.50
